createdAt,value
2023-01-31T00:02:23.244Z,98699.53
2023-01-31T00:06:45.153Z,98701.94
2023-01-31T00:11:05.566Z,98693.06
2023-01-31T00:15:26.417Z,98706.47
2023-01-31T00:19:47.111Z,98707.28
2023-01-31T00:24:07.462Z,98708.09
2023-01-31T00:28:27.953Z,98712.34
2023-01-31T00:32:48.624Z,98725.81
2023-01-31T00:37:10.062Z,98723.38
2023-01-31T00:41:31.078Z,98737.47
2023-01-31T00:45:33.038Z,98741.91
2023-01-31T00:49:35.501Z,98735.63
2023-01-31T00:53:38.553Z,98739.63
2023-01-31T00:57:40.748Z,98749.06
2023-01-31T01:01:42.874Z,98745.91
2023-01-31T01:05:47.373Z,98753.06
2023-01-31T01:09:52.434Z,98760.28
2023-01-31T01:13:54.724Z,98767.00
2023-01-31T01:17:56.844Z,98761.28
2023-01-31T01:21:58.869Z,98773.28
2023-01-31T01:26:00.935Z,98766.84
2023-01-31T01:30:04.442Z,98767.38
2023-01-31T01:34:07.897Z,98777.16
2023-01-31T01:38:09.915Z,98776.41
2023-01-31T01:42:16.519Z,98773.19
2023-01-31T01:46:30.710Z,98781.69
2023-01-31T01:50:36.991Z,98778.81
2023-01-31T01:54:46.490Z,98788.34
2023-01-31T01:58:56.934Z,98788.84
2023-01-31T02:02:59.998Z,98798.28
2023-01-31T02:07:02.922Z,98794.47
2023-01-31T02:11:05.202Z,98795.69
2023-01-31T02:15:07.927Z,98806.63
2023-01-31T02:19:31.136Z,98816.78
2023-01-31T02:23:52.502Z,98811.13
2023-01-31T02:27:54.813Z,98808.69
2023-01-31T02:31:56.919Z,98824.69
2023-01-31T02:36:02.631Z,98836.72
2023-01-31T02:40:14.514Z,98838.34
2023-01-31T02:44:53.793Z,98846.66
2023-01-31T02:49:02.788Z,98855.31
2023-01-31T02:53:08.985Z,98849.63
2023-01-31T02:57:12.718Z,98861.53
2023-01-31T03:01:19.551Z,98871.31
2023-01-31T03:05:22.772Z,98878.28
2023-01-31T03:09:39.545Z,98885.53
2023-01-31T03:13:43.067Z,98881.41
2023-01-31T03:17:54.441Z,98885.91
2023-01-31T03:22:00.295Z,98889.88
2023-01-31T03:26:03.575Z,98878.66
2023-01-31T03:30:09.773Z,98872.63
2023-01-31T03:34:13.895Z,98887.22
2023-01-31T03:38:18.100Z,98888.28
2023-01-31T03:42:23.906Z,98890.13
2023-01-31T03:46:31.185Z,98908.78
2023-01-31T03:50:38.673Z,98912.09
2023-01-31T03:54:46.544Z,98922.78
2023-01-31T03:58:51.129Z,98923.44
2023-01-31T04:02:58.923Z,98922.78
2023-01-31T04:07:01.770Z,98923.69
2023-01-31T04:11:06.465Z,98923.53
2023-01-31T04:15:09.235Z,98932.75
2023-01-31T04:19:12.024Z,98933.91
2023-01-31T04:23:14.034Z,98928.69
2023-01-31T04:27:16.189Z,98929.63
2023-01-31T04:31:18.337Z,98930.81
2023-01-31T04:35:21.171Z,98925.13
2023-01-31T04:39:23.451Z,98935.06
2023-01-31T04:43:25.481Z,98933.34
2023-01-31T04:47:27.443Z,98927.66
2023-01-31T04:51:29.579Z,98937.38
2023-01-31T04:55:31.789Z,98926.66
2023-01-31T04:59:33.898Z,98926.03
2023-01-31T05:03:36.475Z,98921.44
2023-01-31T05:07:39.014Z,98927.13
2023-01-31T05:11:41.512Z,98926.09
2023-01-31T05:15:43.534Z,98921.59
2023-01-31T05:19:45.559Z,98930.72
2023-01-31T05:23:47.544Z,98932.44
2023-01-31T05:27:49.753Z,98934.78
2023-01-31T05:31:52.907Z,98940.53
2023-01-31T05:35:54.933Z,98937.66
2023-01-31T05:39:57.111Z,98946.31
2023-01-31T05:43:59.071Z,98944.69
2023-01-31T05:48:02.439Z,98941.78
2023-01-31T05:52:04.459Z,98945.25
2023-01-31T05:56:07.072Z,98942.69
2023-01-31T06:00:09.378Z,98943.59
2023-01-31T06:04:14.024Z,98958.91
2023-01-31T06:08:16.008Z,98971.41
2023-01-31T06:12:18.074Z,98971.81
2023-01-31T06:16:20.107Z,98972.72
2023-01-31T06:20:22.104Z,98978.75
2023-01-31T06:24:24.281Z,98992.81
2023-01-31T06:28:26.434Z,99001.66
2023-01-31T06:32:28.657Z,99007.91
2023-01-31T06:36:34.226Z,99005.88
2023-01-31T06:40:36.648Z,99013.03
2023-01-31T06:44:38.665Z,99024.81
2023-01-31T06:48:40.663Z,99014.50
2023-01-31T06:52:42.694Z,99026.63
2023-01-31T06:56:44.902Z,99027.66
2023-01-31T07:00:47.376Z,99041.84
2023-01-31T07:04:49.987Z,99051.66
2023-01-31T07:08:52.553Z,99064.22
2023-01-31T07:12:54.610Z,99062.41
2023-01-31T07:16:56.493Z,99065.53
2023-01-31T07:20:58.775Z,99080.63
2023-01-31T07:25:00.974Z,99078.59
2023-01-31T07:29:03.370Z,99070.81
2023-01-31T07:33:06.181Z,99081.59
2023-01-31T07:37:08.569Z,99087.22
2023-01-31T07:41:16.872Z,99113.16
2023-01-31T07:45:23.611Z,99118.13
2023-01-31T07:49:26.075Z,99113.78
2023-01-31T07:53:29.976Z,99126.31
2023-01-31T07:57:32.457Z,99133.28
2023-01-31T08:01:53.511Z,99124.28
2023-01-31T08:05:55.687Z,99121.34
2023-01-31T08:09:57.905Z,99125.59
2023-01-31T08:14:00.234Z,99131.88
2023-01-31T08:18:05.085Z,99134.41
2023-01-31T08:22:08.285Z,99137.19
2023-01-31T08:26:14.704Z,99157.59
2023-01-31T08:30:17.006Z,99174.66
2023-01-31T08:34:19.266Z,99178.81
2023-01-31T08:38:21.633Z,99188.38
2023-01-31T08:42:23.915Z,99201.41
2023-01-31T08:46:27.660Z,99200.66
2023-01-31T08:50:31.411Z,99197.06
2023-01-31T08:54:35.656Z,99202.19
2023-01-31T08:58:38.926Z,99196.94
2023-01-31T09:02:41.476Z,99188.69
2023-01-31T09:06:44.164Z,99204.94
2023-01-31T09:10:53.675Z,99210.03
2023-01-31T09:14:56.234Z,99212.28
2023-01-31T09:18:59.100Z,99223.19
2023-01-31T09:23:01.342Z,99219.13
2023-01-31T09:27:03.561Z,99218.50
2023-01-31T09:31:07.757Z,99226.00
2023-01-31T09:35:10.111Z,99226.38
2023-01-31T09:39:12.775Z,99229.19
2023-01-31T09:43:16.216Z,99220.59
2023-01-31T09:47:28.784Z,99216.09
2023-01-31T09:51:31.937Z,99221.66
2023-01-31T09:55:45.689Z,99218.94
2023-01-31T10:00:00.110Z,99228.38
2023-01-31T10:04:17.586Z,99229.06
2023-01-31T10:08:19.520Z,99232.84
2023-01-31T10:12:29.455Z,99229.66
2023-01-31T10:16:36.064Z,99227.31
2023-01-31T10:20:41.318Z,99225.25
2023-01-31T10:24:45.874Z,99227.38
2023-01-31T10:29:00.833Z,99214.59
2023-01-31T10:33:08.497Z,99210.03
2023-01-31T10:37:31.774Z,99197.56
2023-01-31T10:41:34.766Z,99201.63
2023-01-31T10:45:38.638Z,99190.19
2023-01-31T10:49:44.320Z,99184.72
2023-01-31T10:53:49.389Z,99191.78
2023-01-31T10:57:51.992Z,99190.84
2023-01-31T11:01:54.177Z,99183.28
2023-01-31T11:05:57.274Z,99172.19
2023-01-31T11:09:59.336Z,99177.97
2023-01-31T11:14:02.522Z,99171.53
2023-01-31T11:18:04.973Z,99166.56
2023-01-31T11:22:08.112Z,99166.31
2023-01-31T11:26:10.307Z,99152.75
2023-01-31T11:30:23.579Z,99147.72
2023-01-31T11:34:27.611Z,99156.69
2023-01-31T11:38:30.362Z,99153.72
2023-01-31T11:42:32.439Z,99141.91
2023-01-31T11:46:46.850Z,99139.19
2023-01-31T11:50:54.244Z,99127.38
2023-01-31T11:54:59.424Z,99130.56
2023-01-31T11:59:04.361Z,99135.00
2023-01-31T12:03:09.258Z,99133.50
2023-01-31T12:07:22.042Z,99128.78
2023-01-31T12:11:29.208Z,99125.56
2023-01-31T12:15:32.051Z,99131.38
2023-01-31T12:19:40.299Z,99132.06
2023-01-31T12:23:42.228Z,99128.34
2023-01-31T12:27:55.947Z,99109.47
2023-01-31T12:32:00.954Z,99114.88
2023-01-31T12:36:15.767Z,99113.06
2023-01-31T12:40:24.974Z,99113.56
2023-01-31T12:44:27.802Z,99112.06
2023-01-31T12:48:33.055Z,99113.28
2023-01-31T12:52:53.533Z,99109.16
2023-01-31T12:57:12.632Z,99102.34
2023-01-31T13:01:26.949Z,99101.69
2023-01-31T13:05:33.414Z,99095.31
2023-01-31T13:09:36.701Z,99096.97
2023-01-31T13:13:45.640Z,99089.34
2023-01-31T13:17:49.516Z,99085.34
2023-01-31T13:21:54.765Z,99087.66
2023-01-31T13:26:08.072Z,99081.00
2023-01-31T13:30:19.359Z,99077.59
2023-01-31T13:34:29.301Z,99082.22
2023-01-31T13:38:34.982Z,99083.22
2023-01-31T13:42:36.956Z,99085.25
2023-01-31T13:46:39.781Z,99083.94
2023-01-31T13:50:47.252Z,99084.72
2023-01-31T13:54:53.257Z,99083.13
2023-01-31T13:58:56.147Z,99084.22
2023-01-31T14:03:01.719Z,99086.41
2023-01-31T14:07:06.049Z,99078.69
2023-01-31T14:11:14.297Z,99073.63
2023-01-31T14:15:36.579Z,99070.16
2023-01-31T14:19:42.281Z,99070.69
2023-01-31T14:23:47.121Z,99068.38
2023-01-31T14:27:53.240Z,99065.69
2023-01-31T14:31:56.747Z,99075.59
2023-01-31T14:36:24.935Z,99071.13
2023-01-31T14:40:29.496Z,99084.75
2023-01-31T14:44:45.236Z,99073.78
2023-01-31T14:48:47.292Z,99079.44
2023-01-31T14:52:49.277Z,99077.00
2023-01-31T14:57:02.278Z,99080.97
2023-01-31T15:01:07.312Z,99082.16
2023-01-31T15:05:11.411Z,99082.41
2023-01-31T15:09:18.836Z,99076.75
2023-01-31T15:13:38.877Z,99079.69
2023-01-31T15:17:41.150Z,99081.28
2023-01-31T15:21:47.817Z,99092.72
2023-01-31T15:25:50.858Z,99091.59
2023-01-31T15:29:56.746Z,99090.16
2023-01-31T15:34:05.383Z,99094.06
2023-01-31T15:38:21.384Z,99092.84
2023-01-31T15:42:25.504Z,99099.13
2023-01-31T15:46:32.132Z,99100.53
2023-01-31T15:50:34.344Z,99094.88
2023-01-31T15:54:36.699Z,99105.16
2023-01-31T15:58:39.023Z,99112.38
2023-01-31T16:02:41.427Z,99119.50
2023-01-31T16:06:43.789Z,99122.34
2023-01-31T16:10:47.467Z,99134.53
2023-01-31T16:14:51.655Z,99143.47
2023-01-31T16:18:56.019Z,99144.63
2023-01-31T16:22:58.345Z,99139.19
2023-01-31T16:27:04.121Z,99134.16
2023-01-31T16:31:08.243Z,99149.84
2023-01-31T16:35:22.469Z,99152.84
2023-01-31T16:39:37.102Z,99152.34
2023-01-31T16:43:43.421Z,99155.25
2023-01-31T16:47:48.059Z,99155.25
2023-01-31T16:51:51.338Z,99163.34
2023-01-31T16:56:12.632Z,99165.16
2023-01-31T17:00:23.791Z,99174.09
2023-01-31T17:04:25.843Z,99165.97
2023-01-31T17:08:27.982Z,99170.44
2023-01-31T17:12:31.671Z,99166.66
2023-01-31T17:16:34.069Z,99174.28
2023-01-31T17:20:36.149Z,99180.81
2023-01-31T17:24:39.456Z,99174.66
2023-01-31T17:28:46.814Z,99182.03
2023-01-31T17:32:49.467Z,99178.28
2023-01-31T17:36:51.629Z,99189.06
2023-01-31T17:40:53.727Z,99199.16
2023-01-31T17:44:56.034Z,99195.47
2023-01-31T17:48:58.367Z,99203.25
2023-01-31T17:53:00.466Z,99191.75
2023-01-31T17:57:02.464Z,99198.47
2023-01-31T18:01:07.791Z,99193.38
2023-01-31T18:05:10.866Z,99191.34
2023-01-31T18:09:15.930Z,99193.78
2023-01-31T18:13:17.913Z,99194.00
2023-01-31T18:17:20.289Z,99204.91
2023-01-31T18:21:23.541Z,99203.06
2023-01-31T18:25:25.934Z,99212.97
2023-01-31T18:29:29.979Z,99213.50
2023-01-31T18:33:32.454Z,99221.25
2023-01-31T18:37:34.481Z,99228.72
2023-01-31T18:41:36.585Z,99226.66
2023-01-31T18:45:38.800Z,99225.00
2023-01-31T18:49:41.069Z,99211.97
2023-01-31T18:53:44.964Z,99210.34
2023-01-31T18:57:47.184Z,99212.31
2023-01-31T19:01:49.258Z,99219.31
2023-01-31T19:05:51.570Z,99235.00
2023-01-31T19:09:53.635Z,99242.22
2023-01-31T19:13:56.192Z,99246.81
2023-01-31T19:17:58.197Z,99241.91
2023-01-31T19:22:01.588Z,99242.66
2023-01-31T19:26:03.735Z,99236.53
2023-01-31T19:49:33.593Z,99233.91
2023-01-31T19:53:36.423Z,99224.91
2023-01-31T20:09:31.466Z,99218.47
2023-01-31T21:02:14.607Z,99225.47
2023-01-31T22:32:37.484Z,99254.31
2023-01-31T22:36:39.882Z,99262.63
2023-01-31T22:40:45.028Z,99258.50
2023-01-31T22:44:48.951Z,99264.41
2023-01-31T22:48:52.693Z,99287.28
2023-01-31T22:52:54.698Z,99276.91
2023-01-31T22:56:56.743Z,99277.97
2023-01-31T23:00:58.671Z,99279.44
2023-01-31T23:05:00.814Z,99278.53
2023-01-31T23:09:03.105Z,99266.56
2023-01-31T23:13:05.579Z,99273.88
2023-01-31T23:17:27.517Z,99265.69
2023-01-31T23:21:29.568Z,99266.50
2023-01-31T23:25:31.698Z,99256.75
2023-01-31T23:29:33.875Z,99264.25
2023-01-31T23:33:40.402Z,99269.84
2023-01-31T23:37:44.519Z,99265.06
2023-01-31T23:41:47.317Z,99261.63
2023-01-31T23:45:50.013Z,99264.19
2023-01-31T23:49:52.295Z,99256.91
2023-01-31T23:53:54.989Z,99262.00
2023-01-31T23:57:58.152Z,99270.31
